createdAt,value
2023-02-15T00:00:01.540Z,12.40
2023-02-15T00:00:33.431Z,10.65
2023-02-15T00:01:08.735Z,11.82
2023-02-15T00:01:42.141Z,12.90
2023-02-15T00:02:14.100Z,11.15
2023-02-15T00:02:45.994Z,12.48
2023-02-15T00:03:18.898Z,11.82
2023-02-15T00:03:51.528Z,11.00
2023-02-15T00:04:24.972Z,13.05
2023-02-15T00:04:57.758Z,11.48
2023-02-15T00:05:31.559Z,11.05
2023-02-15T00:06:04.428Z,12.15
2023-02-15T00:06:37.645Z,12.57
2023-02-15T00:07:09.428Z,15.93
2023-02-15T00:07:41.234Z,21.83
2023-02-15T00:08:14.080Z,17.95
2023-02-15T00:08:45.963Z,18.35
2023-02-15T00:09:17.964Z,17.88
2023-02-15T00:09:50.837Z,17.55
2023-02-15T00:10:24.414Z,14.95
2023-02-15T00:11:06.176Z,13.57
2023-02-15T00:11:40.846Z,12.27
2023-02-15T00:12:14.256Z,11.30
2023-02-15T00:12:46.045Z,11.38
2023-02-15T00:13:17.896Z,12.85
2023-02-15T00:13:50.662Z,11.23
2023-02-15T00:14:23.844Z,10.68
2023-02-15T00:14:57.014Z,11.00
2023-02-15T00:15:29.840Z,10.98
2023-02-15T00:16:03.350Z,10.88
2023-02-15T00:16:35.629Z,10.52
2023-02-15T00:17:08.428Z,10.57
2023-02-15T00:17:40.209Z,11.05
2023-02-15T00:18:11.993Z,11.32
2023-02-15T00:18:43.779Z,10.60
2023-02-15T00:19:18.555Z,10.73
2023-02-15T00:19:50.507Z,10.95
2023-02-15T00:20:22.786Z,10.77
2023-02-15T00:20:55.581Z,10.93
2023-02-15T00:21:27.363Z,11.82
2023-02-15T00:21:59.228Z,11.32
2023-02-15T00:22:32.034Z,12.95
2023-02-15T00:23:03.848Z,10.50
2023-02-15T00:23:35.802Z,11.07
2023-02-15T00:24:12.278Z,11.07
2023-02-15T00:24:44.065Z,11.43
2023-02-15T00:25:16.048Z,11.50
2023-02-15T00:25:48.910Z,11.27
2023-02-15T00:26:20.726Z,10.55
2023-02-15T00:26:53.539Z,11.32
2023-02-15T00:27:25.631Z,11.68
2023-02-15T00:27:57.408Z,11.57
2023-02-15T00:28:30.212Z,11.57
2023-02-15T00:29:02.614Z,10.63
2023-02-15T00:29:34.428Z,10.57
2023-02-15T00:30:09.781Z,9.70
2023-02-15T00:30:41.626Z,10.13
2023-02-15T00:31:13.978Z,10.50
2023-02-15T00:31:46.996Z,11.50
2023-02-15T00:32:18.805Z,11.77
2023-02-15T00:32:50.653Z,10.35
2023-02-15T00:33:26.874Z,13.27
2023-02-15T00:34:03.594Z,10.25
2023-02-15T00:34:35.468Z,10.98
2023-02-15T00:35:07.822Z,10.38
2023-02-15T00:35:40.592Z,10.32
2023-02-15T00:36:12.977Z,11.00
2023-02-15T00:36:45.798Z,10.82
2023-02-15T00:37:18.642Z,10.73
2023-02-15T00:37:50.488Z,10.88
2023-02-15T00:38:22.303Z,11.70
2023-02-15T00:38:54.118Z,10.52
2023-02-15T00:39:28.156Z,11.38
2023-02-15T00:39:59.977Z,11.00
2023-02-15T00:40:31.777Z,11.50
2023-02-15T00:41:05.701Z,10.38
2023-02-15T00:41:38.669Z,10.10
2023-02-15T00:42:10.483Z,9.65
2023-02-15T00:42:42.332Z,12.05
2023-02-15T00:43:15.112Z,10.50
2023-02-15T00:43:46.939Z,11.20
2023-02-15T00:44:18.874Z,10.80
2023-02-15T00:44:51.631Z,9.75
2023-02-15T00:45:24.818Z,10.40
2023-02-15T00:45:56.913Z,9.90
2023-02-15T00:46:29.805Z,11.60
2023-02-15T00:47:01.610Z,10.80
2023-02-15T00:47:33.546Z,9.95
2023-02-15T00:48:06.445Z,10.20
2023-02-15T00:48:38.228Z,9.82
2023-02-15T00:49:10.769Z,10.05
2023-02-15T00:49:43.535Z,10.40
2023-02-15T00:50:15.406Z,9.45
2023-02-15T00:50:47.451Z,10.98
2023-02-15T00:51:21.240Z,9.40
2023-02-15T00:51:53.085Z,10.82
2023-02-15T00:52:24.944Z,10.68
2023-02-15T00:52:57.710Z,10.00
2023-02-15T00:53:30.276Z,10.80
2023-02-15T00:54:02.166Z,12.75
2023-02-15T00:54:35.477Z,9.88
2023-02-15T00:55:08.080Z,10.50
2023-02-15T00:55:40.875Z,9.68
2023-02-15T00:56:14.079Z,10.43
2023-02-15T00:56:45.926Z,8.95
2023-02-15T00:57:17.787Z,10.70
2023-02-15T00:57:50.532Z,9.63
2023-02-15T00:58:22.418Z,11.13
2023-02-15T00:58:54.399Z,9.73
2023-02-15T00:59:27.196Z,9.63
2023-02-15T00:59:58.990Z,10.35
2023-02-15T01:00:32.237Z,9.93
2023-02-15T01:01:07.665Z,9.20
2023-02-15T01:01:39.568Z,10.35
2023-02-15T01:02:11.376Z,9.35
2023-02-15T01:02:43.186Z,9.98
2023-02-15T01:03:18.520Z,9.75
2023-02-15T01:03:50.610Z,9.45
2023-02-15T01:04:22.496Z,9.73
2023-02-15T01:04:55.244Z,10.15
2023-02-15T01:05:27.240Z,9.77
2023-02-15T01:05:59.325Z,9.40
2023-02-15T01:06:32.325Z,9.88
2023-02-15T01:07:04.522Z,10.40
2023-02-15T01:07:36.346Z,9.60
2023-02-15T01:08:08.423Z,9.38
2023-02-15T01:08:41.456Z,9.25
2023-02-15T01:09:14.529Z,8.57
2023-02-15T01:09:47.295Z,9.52
2023-02-15T01:10:19.267Z,8.88
2023-02-15T01:10:51.155Z,9.30
2023-02-15T01:11:24.660Z,9.50
2023-02-15T01:11:56.518Z,8.82
2023-02-15T01:12:28.384Z,9.25
2023-02-15T01:13:01.183Z,10.18
2023-02-15T01:13:33.693Z,9.98
2023-02-15T01:14:06.575Z,10.20
2023-02-15T01:14:38.405Z,9.27
2023-02-15T01:15:10.518Z,10.68
2023-02-15T01:15:44.209Z,9.93
2023-02-15T01:16:17.040Z,9.70
2023-02-15T01:16:48.936Z,9.52
2023-02-15T01:17:20.744Z,9.57
2023-02-15T01:17:54.188Z,10.07
2023-02-15T01:18:26.030Z,9.55
2023-02-15T01:18:58.175Z,10.10
2023-02-15T01:19:30.927Z,10.65
2023-02-15T01:20:02.887Z,10.73
2023-02-15T01:20:37.521Z,10.98
2023-02-15T01:21:14.731Z,10.40
2023-02-15T01:21:46.606Z,9.18
2023-02-15T01:22:18.640Z,9.93
2023-02-15T01:22:52.195Z,10.35
2023-02-15T01:23:23.983Z,10.27
2023-02-15T01:23:55.795Z,11.07
2023-02-15T01:24:28.568Z,9.48
2023-02-15T01:25:00.387Z,11.10
2023-02-15T01:25:33.882Z,9.73
2023-02-15T01:26:06.714Z,10.30
2023-02-15T01:26:38.699Z,10.10
2023-02-15T01:27:10.552Z,10.80
2023-02-15T01:27:43.820Z,11.30
2023-02-15T01:28:15.730Z,11.65
2023-02-15T01:28:47.785Z,9.88
2023-02-15T01:29:20.640Z,9.95
2023-02-15T01:29:52.444Z,9.63
2023-02-15T01:30:24.332Z,9.85
2023-02-15T01:30:57.626Z,10.48
2023-02-15T01:31:30.794Z,9.40
2023-02-15T01:32:02.888Z,9.18
2023-02-15T01:32:34.738Z,11.18
2023-02-15T01:33:07.587Z,9.82
2023-02-15T01:33:39.874Z,10.32
2023-02-15T01:34:11.701Z,10.35
2023-02-15T01:34:44.442Z,9.68
2023-02-15T01:35:16.314Z,9.20
2023-02-15T01:35:48.179Z,10.65
2023-02-15T01:36:21.189Z,10.68
2023-02-15T01:36:53.059Z,10.55
2023-02-15T01:37:25.000Z,10.50
2023-02-15T01:37:57.261Z,10.13
2023-02-15T01:38:30.039Z,10.25
2023-02-15T01:39:02.145Z,10.80
2023-02-15T01:39:33.956Z,9.55
2023-02-15T01:40:10.059Z,11.82
2023-02-15T01:40:41.900Z,11.23
2023-02-15T01:41:24.179Z,10.27
2023-02-15T01:41:57.218Z,10.85
2023-02-15T01:42:30.212Z,11.00
2023-02-15T01:43:02.033Z,10.82
2023-02-15T01:43:41.541Z,11.55
2023-02-15T01:44:49.066Z,9.27
2023-02-15T01:45:24.068Z,9.60
2023-02-15T01:45:58.311Z,10.23
2023-02-15T01:46:34.782Z,9.07
2023-02-15T01:47:08.430Z,11.07
2023-02-15T01:47:45.758Z,10.75
2023-02-15T01:48:23.481Z,10.00
2023-02-15T01:49:00.991Z,9.57
2023-02-15T01:49:34.628Z,10.32
2023-02-15T01:50:10.964Z,9.98
2023-02-15T01:50:45.228Z,10.63
2023-02-15T01:51:23.114Z,11.38
2023-02-15T01:51:55.315Z,10.63
2023-02-15T01:52:27.454Z,10.23
2023-02-15T01:53:03.673Z,10.13
2023-02-15T01:53:40.330Z,10.15
2023-02-15T01:54:18.503Z,10.07
2023-02-15T01:54:50.483Z,10.25
2023-02-15T01:55:24.643Z,10.45
2023-02-15T01:56:01.308Z,10.60
2023-02-15T01:56:36.724Z,10.93
2023-02-15T01:57:13.288Z,10.43
2023-02-15T01:57:48.495Z,9.82
2023-02-15T01:58:20.918Z,11.48
2023-02-15T01:58:56.252Z,10.93
2023-02-15T01:59:29.173Z,10.57
2023-02-15T02:00:04.433Z,10.23
2023-02-15T02:00:36.470Z,10.40
2023-02-15T02:01:10.988Z,10.02
2023-02-15T02:01:43.082Z,9.93
2023-02-15T02:02:17.674Z,9.95
2023-02-15T02:02:53.019Z,10.07
2023-02-15T02:03:37.357Z,11.02
2023-02-15T02:04:15.715Z,10.43
2023-02-15T02:04:50.005Z,11.30
2023-02-15T02:05:22.187Z,10.55
2023-02-15T02:05:54.893Z,11.88
2023-02-15T02:06:27.809Z,11.40
2023-02-15T02:07:00.469Z,10.90
2023-02-15T02:07:36.834Z,10.80
2023-02-15T02:08:10.513Z,11.63
2023-02-15T02:08:43.768Z,10.70
2023-02-15T02:09:16.847Z,10.38
2023-02-15T02:09:49.783Z,11.52
2023-02-15T02:10:24.089Z,10.27
2023-02-15T02:10:56.909Z,10.52
2023-02-15T02:11:29.008Z,10.70
2023-02-15T02:12:01.792Z,10.82
2023-02-15T02:12:34.176Z,11.32
2023-02-15T02:13:08.540Z,10.80
2023-02-15T02:13:41.243Z,10.73
2023-02-15T02:14:13.549Z,10.32
2023-02-15T02:14:46.644Z,10.82
2023-02-15T02:15:19.899Z,10.82
2023-02-15T02:15:59.672Z,10.35
2023-02-15T02:16:44.903Z,11.15
2023-02-15T02:17:21.701Z,10.40
2023-02-15T02:18:04.054Z,10.85
2023-02-15T02:18:46.965Z,10.65
2023-02-15T02:19:43.403Z,11.27
2023-02-15T02:20:31.967Z,10.70
2023-02-15T02:21:35.578Z,9.73
2023-02-15T02:22:22.290Z,10.80
2023-02-15T02:23:35.765Z,10.40
2023-02-15T02:24:30.032Z,9.52
2023-02-15T02:25:31.264Z,9.57
2023-02-15T02:26:50.366Z,9.65
2023-02-15T02:27:40.176Z,9.30
2023-02-15T02:28:31.114Z,10.20
2023-02-15T02:29:24.409Z,11.27
2023-02-15T02:30:30.623Z,10.90
2023-02-15T02:31:23.432Z,9.07
2023-02-15T02:32:26.263Z,10.50
2023-02-15T02:33:21.260Z,9.30
2023-02-15T02:34:05.388Z,10.15
2023-02-15T02:34:43.059Z,11.55
2023-02-15T02:35:23.263Z,11.43
2023-02-15T02:36:04.005Z,10.30
2023-02-15T02:36:41.236Z,11.57
2023-02-15T02:37:20.311Z,10.40
2023-02-15T02:38:00.914Z,11.85
2023-02-15T02:38:43.427Z,11.20
2023-02-15T02:39:29.704Z,10.82
2023-02-15T02:40:09.842Z,10.75
2023-02-15T02:40:53.783Z,10.30
2023-02-15T02:41:33.969Z,10.82
2023-02-15T02:42:11.823Z,9.00
2023-02-15T02:42:49.625Z,11.15
2023-02-15T02:43:30.520Z,10.40
2023-02-15T02:44:09.942Z,10.40
2023-02-15T02:44:44.546Z,9.75
2023-02-15T02:45:23.710Z,10.50
2023-02-15T02:46:01.826Z,10.45
2023-02-15T02:46:38.030Z,10.15
2023-02-15T02:47:16.408Z,10.80
2023-02-15T02:47:52.208Z,9.40
2023-02-15T02:48:28.845Z,9.93
2023-02-15T02:49:02.702Z,11.00
2023-02-15T02:49:36.312Z,10.73
2023-02-15T02:50:10.168Z,11.50
2023-02-15T02:50:43.528Z,10.35
2023-02-15T02:51:21.092Z,9.93
2023-02-15T02:52:00.043Z,10.35
2023-02-15T02:52:43.033Z,10.60
2023-02-15T02:53:14.891Z,13.38
2023-02-15T02:53:46.836Z,11.10
2023-02-15T02:54:19.716Z,10.63
2023-02-15T02:54:51.522Z,10.35
2023-02-15T02:55:42.164Z,10.70
2023-02-15T02:56:23.795Z,11.27
2023-02-15T02:56:57.346Z,10.88
2023-02-15T02:57:30.299Z,12.13
2023-02-15T02:58:06.895Z,10.70
2023-02-15T02:58:44.219Z,10.55
2023-02-15T02:59:21.038Z,10.50
2023-02-15T02:59:56.059Z,10.70
2023-02-15T03:00:31.724Z,9.25
2023-02-15T03:01:07.768Z,10.88
2023-02-15T03:01:44.804Z,11.15
2023-02-15T03:02:22.336Z,17.73
2023-02-15T03:03:00.690Z,29.55
2023-02-15T03:03:40.506Z,27.13
2023-02-15T03:04:16.489Z,23.13
2023-02-15T03:04:59.152Z,18.27
2023-02-15T03:05:33.786Z,14.35
2023-02-15T03:06:08.946Z,13.50
2023-02-15T03:06:47.890Z,12.20
2023-02-15T03:07:24.585Z,10.60
2023-02-15T03:07:57.928Z,11.52
2023-02-15T03:08:35.790Z,11.52
2023-02-15T03:09:22.425Z,11.43
2023-02-15T03:09:56.226Z,10.25
2023-02-15T03:10:30.394Z,12.07
2023-02-15T03:11:05.135Z,10.02
2023-02-15T03:11:37.036Z,10.35
2023-02-15T03:12:10.261Z,11.40
2023-02-15T03:12:43.335Z,10.73
2023-02-15T03:13:15.898Z,11.93
2023-02-15T03:13:49.721Z,11.07
2023-02-15T03:14:22.679Z,11.40
2023-02-15T03:14:57.368Z,10.07
2023-02-15T03:15:52.792Z,11.95
2023-02-15T03:16:27.933Z,10.13
2023-02-15T03:17:01.876Z,11.18
2023-02-15T03:17:36.367Z,10.27
2023-02-15T03:18:08.344Z,10.35
2023-02-15T03:18:53.476Z,10.95
2023-02-15T03:19:30.668Z,11.02
2023-02-15T03:20:08.538Z,10.30
2023-02-15T03:20:40.433Z,10.95
2023-02-15T03:21:22.918Z,10.00
2023-02-15T03:22:04.440Z,11.35
2023-02-15T03:22:39.985Z,10.15
2023-02-15T03:23:17.907Z,10.88
2023-02-15T03:23:54.766Z,9.88
2023-02-15T03:24:30.659Z,11.00
2023-02-15T03:25:08.808Z,9.30
2023-02-15T03:25:44.028Z,10.85
2023-02-15T03:26:16.185Z,10.93
2023-02-15T03:26:51.664Z,10.70
2023-02-15T03:27:27.757Z,10.07
2023-02-15T03:28:02.805Z,9.68
2023-02-15T03:28:39.726Z,10.13
2023-02-15T03:29:14.156Z,10.60
2023-02-15T03:29:48.132Z,10.93
2023-02-15T03:30:24.001Z,10.52
2023-02-15T03:31:02.151Z,10.43
2023-02-15T03:31:39.573Z,10.98
2023-02-15T03:32:14.770Z,11.05
2023-02-15T03:32:49.403Z,10.48
2023-02-15T03:33:22.709Z,10.68
2023-02-15T03:34:00.306Z,10.85
2023-02-15T03:34:33.383Z,10.93
2023-02-15T03:35:06.150Z,11.55
2023-02-15T03:35:44.323Z,10.80
2023-02-15T03:36:22.959Z,10.35
2023-02-15T03:37:01.341Z,10.80
2023-02-15T03:37:39.521Z,11.65
2023-02-15T03:38:14.898Z,11.68
2023-02-15T03:38:51.604Z,10.45
2023-02-15T03:39:32.201Z,10.98
2023-02-15T03:40:25.803Z,10.88
2023-02-15T03:41:12.432Z,10.00
2023-02-15T03:41:51.702Z,9.57
2023-02-15T03:42:28.826Z,10.68
2023-02-15T03:43:05.899Z,10.48
2023-02-15T03:43:47.115Z,11.02
2023-02-15T03:44:26.270Z,10.70
2023-02-15T03:45:04.573Z,10.95
2023-02-15T03:45:39.178Z,10.80
2023-02-15T03:46:15.055Z,10.93
2023-02-15T03:46:53.760Z,11.27
2023-02-15T03:47:29.571Z,11.52
2023-02-15T03:48:02.685Z,10.88
2023-02-15T03:48:41.029Z,10.85
2023-02-15T03:49:21.098Z,11.35
2023-02-15T03:49:57.428Z,9.95
2023-02-15T03:50:50.718Z,11.43
2023-02-15T03:51:37.245Z,10.80
2023-02-15T03:52:11.871Z,10.05
2023-02-15T03:52:44.082Z,10.32
2023-02-15T03:53:22.046Z,12.07
2023-02-15T03:53:55.392Z,10.38
2023-02-15T03:54:47.222Z,11.23
2023-02-15T03:55:19.044Z,11.98
2023-02-15T03:55:54.391Z,11.68
2023-02-15T03:56:27.444Z,11.70
2023-02-15T03:57:14.179Z,11.70
2023-02-15T03:58:05.368Z,11.63
2023-02-15T03:58:55.867Z,10.90
2023-02-15T03:59:48.570Z,10.52
2023-02-15T04:00:42.341Z,10.77
2023-02-15T04:01:42.384Z,10.13
2023-02-15T04:02:23.346Z,10.73
2023-02-15T04:03:14.176Z,12.52
2023-02-15T04:03:53.976Z,10.15
2023-02-15T04:04:34.660Z,10.88
2023-02-15T04:05:06.851Z,10.40
2023-02-15T04:05:39.381Z,11.07
2023-02-15T04:06:12.158Z,11.55
2023-02-15T04:06:43.962Z,11.00
2023-02-15T04:07:15.875Z,10.98
2023-02-15T04:07:48.776Z,11.70
2023-02-15T04:08:20.619Z,10.98
2023-02-15T04:09:11.134Z,10.48
2023-02-15T04:10:01.512Z,10.80
2023-02-15T04:10:52.246Z,10.80
2023-02-15T04:11:24.100Z,11.77
2023-02-15T04:11:56.936Z,11.82
2023-02-15T04:12:28.722Z,10.27
2023-02-15T04:13:00.628Z,10.75
2023-02-15T04:13:35.584Z,11.65
2023-02-15T04:14:22.245Z,11.13
2023-02-15T04:15:12.389Z,10.80
2023-02-15T04:16:03.218Z,11.00
2023-02-15T04:16:35.235Z,10.98
2023-02-15T04:17:07.264Z,10.75
2023-02-15T04:17:40.334Z,11.15
2023-02-15T04:18:12.151Z,12.77
2023-02-15T04:19:03.191Z,11.25
2023-02-15T04:19:54.931Z,11.40
2023-02-15T04:20:45.493Z,10.70
2023-02-15T04:21:36.007Z,10.10
2023-02-15T04:22:26.470Z,10.90
2023-02-15T04:23:16.815Z,10.30
2023-02-15T04:24:07.393Z,11.07
2023-02-15T04:24:57.688Z,11.27
2023-02-15T04:25:30.497Z,10.27
2023-02-15T04:26:04.579Z,10.63
2023-02-15T04:26:36.387Z,10.68
2023-02-15T04:27:08.217Z,10.90
2023-02-15T04:27:42.942Z,10.85
2023-02-15T04:28:14.704Z,10.45
2023-02-15T04:28:47.529Z,10.90
2023-02-15T04:29:19.784Z,11.20
2023-02-15T04:29:51.680Z,10.60
2023-02-15T04:30:26.591Z,11.05
2023-02-15T04:30:58.501Z,11.32
2023-02-15T04:31:30.489Z,12.00
2023-02-15T04:32:03.746Z,12.20
2023-02-15T04:32:35.661Z,10.95
2023-02-15T04:33:08.449Z,12.73
2023-02-15T04:33:40.235Z,11.65
2023-02-15T04:34:12.090Z,10.57
2023-02-15T04:34:46.202Z,11.40
2023-02-15T04:35:18.396Z,11.48
2023-02-15T04:35:51.256Z,11.45
2023-02-15T04:36:23.080Z,11.13
2023-02-15T04:36:54.940Z,11.20
2023-02-15T04:37:27.794Z,11.07
2023-02-15T04:37:59.737Z,10.07
2023-02-15T04:38:31.534Z,9.82
2023-02-15T04:39:04.394Z,12.15
2023-02-15T04:39:36.178Z,10.55
2023-02-15T04:40:09.738Z,11.82
2023-02-15T04:40:42.478Z,12.10
2023-02-15T04:41:14.342Z,11.23
2023-02-15T04:41:46.826Z,11.43
2023-02-15T04:42:19.937Z,11.20
2023-02-15T04:42:51.911Z,11.32
2023-02-15T04:43:23.761Z,11.90
2023-02-15T04:43:57.351Z,11.52
2023-02-15T04:44:29.153Z,10.98
2023-02-15T04:45:00.967Z,11.40
2023-02-15T04:45:33.804Z,11.95
2023-02-15T04:46:06.048Z,11.07
2023-02-15T04:46:38.229Z,11.35
2023-02-15T04:47:11.238Z,12.02
2023-02-15T04:47:43.034Z,10.95
2023-02-15T04:48:14.967Z,11.75
2023-02-15T04:48:47.699Z,11.55
2023-02-15T04:49:19.518Z,13.32
2023-02-15T04:49:52.700Z,11.80
2023-02-15T04:50:25.495Z,10.30
2023-02-15T04:50:57.368Z,12.38
2023-02-15T04:51:29.233Z,10.95
2023-02-15T04:52:01.056Z,11.60
2023-02-15T04:52:33.844Z,11.32
2023-02-15T04:53:05.662Z,11.35
2023-02-15T04:53:37.533Z,11.70
2023-02-15T04:54:10.301Z,13.02
2023-02-15T04:54:42.132Z,12.45
2023-02-15T04:55:14.983Z,11.55
2023-02-15T04:55:47.827Z,12.65
2023-02-15T04:56:19.867Z,11.95
2023-02-15T04:56:51.807Z,11.00
2023-02-15T04:57:24.553Z,12.32
2023-02-15T04:57:56.388Z,12.20
2023-02-15T04:58:28.216Z,12.43
2023-02-15T04:59:00.980Z,11.50
2023-02-15T04:59:32.779Z,11.90
2023-02-15T05:00:05.363Z,11.68
2023-02-15T05:00:38.398Z,13.00
2023-02-15T05:01:10.876Z,10.85
2023-02-15T05:01:42.727Z,12.07
2023-02-15T05:02:15.679Z,12.02
2023-02-15T05:02:47.516Z,11.98
2023-02-15T05:03:19.719Z,12.20
2023-02-15T05:03:52.569Z,11.85
2023-02-15T05:04:24.751Z,12.55
2023-02-15T05:04:57.920Z,12.18
2023-02-15T05:05:30.756Z,11.38
2023-02-15T05:06:03.297Z,12.13
2023-02-15T05:06:35.277Z,12.30
2023-02-15T05:07:07.049Z,11.23
2023-02-15T05:07:39.830Z,11.70
2023-02-15T05:08:11.692Z,12.15
2023-02-15T05:08:43.460Z,12.13
2023-02-15T05:09:16.564Z,11.40
2023-02-15T05:09:49.282Z,11.90
2023-02-15T05:10:21.561Z,11.90
2023-02-15T05:10:54.328Z,11.60
2023-02-15T05:11:26.328Z,12.15
2023-02-15T05:11:58.215Z,12.35
2023-02-15T05:12:31.155Z,12.13
2023-02-15T05:13:02.947Z,12.43
2023-02-15T05:13:34.754Z,12.32
2023-02-15T05:14:06.797Z,11.18
2023-02-15T05:14:39.609Z,11.30
2023-02-15T05:15:11.908Z,12.00
2023-02-15T05:15:48.299Z,12.85
2023-02-15T05:16:20.198Z,12.68
2023-02-15T05:16:54.771Z,12.90
2023-02-15T05:17:26.655Z,13.20
2023-02-15T05:17:59.471Z,11.02
2023-02-15T05:18:31.307Z,11.85
2023-02-15T05:19:03.254Z,12.30
2023-02-15T05:19:35.080Z,12.38
2023-02-15T05:20:10.149Z,12.10
2023-02-15T05:20:41.990Z,12.00
2023-02-15T05:21:14.472Z,12.68
2023-02-15T05:21:46.314Z,11.55
2023-02-15T05:22:19.703Z,12.50
2023-02-15T05:22:54.698Z,11.95
2023-02-15T05:23:26.524Z,11.70
2023-02-15T05:23:59.314Z,12.65
2023-02-15T05:24:49.773Z,12.32
2023-02-15T05:25:40.132Z,11.18
2023-02-15T05:26:31.979Z,11.57
2023-02-15T05:27:23.551Z,11.23
2023-02-15T05:28:14.046Z,12.02
2023-02-15T05:28:45.979Z,11.23
2023-02-15T05:29:18.768Z,12.07
2023-02-15T05:29:50.651Z,13.13
2023-02-15T05:30:22.618Z,12.35
2023-02-15T05:31:05.688Z,11.98
2023-02-15T05:31:38.207Z,12.52
2023-02-15T05:32:10.400Z,12.10
2023-02-15T05:32:43.340Z,13.65
2023-02-15T05:33:15.324Z,13.40
2023-02-15T05:33:47.204Z,12.50
2023-02-15T05:34:19.948Z,12.43
2023-02-15T05:34:51.798Z,14.93
2023-02-15T05:35:25.171Z,12.52
2023-02-15T05:35:58.072Z,13.05
2023-02-15T05:36:30.195Z,13.13
2023-02-15T05:37:02.003Z,12.02
2023-02-15T05:37:34.852Z,12.63
2023-02-15T05:38:06.674Z,12.07
2023-02-15T05:38:38.813Z,13.00
2023-02-15T05:39:11.532Z,13.13
2023-02-15T05:39:43.339Z,12.52
2023-02-15T05:40:15.266Z,12.30
2023-02-15T05:40:50.107Z,12.45
2023-02-15T05:41:22.126Z,11.80
2023-02-15T05:41:53.936Z,13.57
2023-02-15T05:42:26.801Z,12.48
2023-02-15T05:42:58.630Z,12.38
2023-02-15T05:43:30.464Z,12.55
2023-02-15T05:44:03.237Z,12.55
2023-02-15T05:44:35.056Z,11.32
2023-02-15T05:45:07.735Z,12.25
2023-02-15T05:45:40.626Z,12.35
2023-02-15T05:46:13.180Z,12.60
2023-02-15T05:46:45.017Z,12.30
2023-02-15T05:47:17.784Z,11.63
2023-02-15T05:47:49.573Z,12.48
2023-02-15T05:48:24.130Z,12.50
2023-02-15T05:48:56.059Z,12.30
2023-02-15T05:49:27.900Z,13.10
2023-02-15T05:50:00.669Z,11.63
2023-02-15T05:50:33.863Z,13.30
2023-02-15T05:51:08.452Z,13.80
2023-02-15T05:51:41.248Z,14.73
2023-02-15T05:52:13.185Z,14.30
2023-02-15T05:52:44.970Z,13.93
2023-02-15T05:53:17.727Z,13.68
2023-02-15T05:53:49.577Z,12.60
2023-02-15T05:54:21.414Z,13.30
2023-02-15T05:54:55.057Z,12.82
2023-02-15T05:55:26.957Z,13.05
2023-02-15T05:56:00.672Z,13.13
2023-02-15T05:56:34.099Z,12.55
2023-02-15T05:57:05.895Z,11.55
2023-02-15T05:57:37.699Z,12.13
2023-02-15T05:58:10.565Z,12.27
2023-02-15T05:58:43.080Z,12.35
2023-02-15T05:59:14.977Z,11.18
2023-02-15T05:59:47.807Z,13.70
2023-02-15T06:00:19.920Z,12.63
2023-02-15T06:00:51.728Z,12.88
2023-02-15T06:01:24.671Z,12.40
2023-02-15T06:01:56.596Z,13.63
2023-02-15T06:02:28.450Z,13.15
2023-02-15T06:03:01.276Z,12.80
2023-02-15T06:03:33.162Z,13.00
2023-02-15T06:04:05.199Z,12.65
2023-02-15T06:04:37.951Z,11.20
2023-02-15T06:05:10.137Z,13.27
2023-02-15T06:05:43.419Z,10.18
2023-02-15T06:06:16.446Z,13.00
2023-02-15T06:06:48.293Z,11.85
2023-02-15T06:07:21.126Z,12.32
2023-02-15T06:07:52.979Z,12.23
2023-02-15T06:08:24.791Z,12.90
2023-02-15T06:08:56.570Z,11.95
2023-02-15T06:09:29.380Z,11.93
2023-02-15T06:10:01.194Z,12.48
2023-02-15T06:10:33.014Z,11.65
2023-02-15T06:11:06.820Z,12.52
2023-02-15T06:11:38.686Z,13.00
2023-02-15T06:12:10.469Z,11.38
2023-02-15T06:12:43.256Z,12.40
2023-02-15T06:13:15.163Z,11.98
2023-02-15T06:13:46.975Z,13.35
2023-02-15T06:14:19.942Z,12.65
2023-02-15T06:14:51.760Z,13.02
2023-02-15T06:15:23.623Z,12.93
2023-02-15T06:15:56.567Z,12.32
2023-02-15T06:16:28.367Z,11.00
2023-02-15T06:17:00.264Z,12.77
2023-02-15T06:17:33.099Z,12.38
2023-02-15T06:18:05.122Z,12.65
2023-02-15T06:18:36.983Z,12.60
2023-02-15T06:19:09.840Z,12.90
2023-02-15T06:19:41.603Z,11.98
2023-02-15T06:20:14.078Z,12.18
2023-02-15T06:20:49.179Z,11.93
2023-02-15T06:21:21.126Z,12.30
2023-02-15T06:21:52.943Z,11.90
2023-02-15T06:22:25.785Z,11.68
2023-02-15T06:22:57.755Z,12.10
2023-02-15T06:23:30.608Z,12.15
2023-02-15T06:24:02.449Z,12.98
2023-02-15T06:24:35.239Z,12.00
2023-02-15T06:25:10.684Z,10.93
2023-02-15T06:25:43.092Z,12.27
2023-02-15T06:26:15.887Z,11.10
2023-02-15T06:26:47.700Z,12.15
2023-02-15T06:27:19.527Z,12.07
2023-02-15T06:27:52.282Z,12.07
2023-02-15T06:28:26.248Z,12.43
2023-02-15T06:28:58.081Z,12.88
2023-02-15T06:29:30.835Z,13.40
2023-02-15T06:30:02.708Z,11.80
2023-02-15T06:30:35.783Z,13.20
2023-02-15T06:31:07.819Z,12.50
2023-02-15T06:31:39.820Z,12.75
2023-02-15T06:32:12.734Z,13.38
2023-02-15T06:32:44.635Z,13.55
2023-02-15T06:33:16.528Z,11.98
2023-02-15T06:33:49.921Z,12.50
2023-02-15T06:34:21.712Z,12.30
2023-02-15T06:34:53.521Z,12.30
2023-02-15T06:35:26.401Z,12.77
2023-02-15T06:35:59.747Z,12.57
2023-02-15T06:36:32.498Z,12.45
2023-02-15T06:37:05.365Z,14.75
2023-02-15T06:37:37.284Z,13.70
2023-02-15T06:38:09.096Z,12.35
2023-02-15T06:38:41.893Z,13.38
2023-02-15T06:39:13.705Z,13.27
2023-02-15T06:39:45.589Z,13.88
2023-02-15T06:40:18.510Z,13.00
2023-02-15T06:40:50.310Z,13.35
2023-02-15T06:41:22.477Z,14.75
2023-02-15T06:41:55.199Z,14.05
2023-02-15T06:42:27.002Z,13.50
2023-02-15T06:42:58.795Z,13.02
2023-02-15T06:43:31.557Z,13.35
2023-02-15T06:44:03.603Z,12.80
2023-02-15T06:44:36.428Z,13.50
2023-02-15T06:45:09.394Z,13.30
2023-02-15T06:45:42.552Z,12.90
2023-02-15T06:46:15.404Z,13.18
2023-02-15T06:46:47.286Z,12.80
2023-02-15T06:47:19.116Z,12.82
2023-02-15T06:47:51.996Z,12.95
2023-02-15T06:48:23.773Z,14.50
2023-02-15T06:48:55.673Z,13.02
2023-02-15T06:49:28.472Z,12.45
2023-02-15T06:50:00.305Z,12.23
2023-02-15T06:50:33.060Z,13.02
2023-02-15T06:51:06.277Z,13.45
2023-02-15T06:51:39.082Z,12.65
2023-02-15T06:52:13.376Z,12.13
2023-02-15T06:52:45.935Z,13.18
2023-02-15T06:53:18.680Z,13.00
2023-02-15T06:53:50.486Z,11.77
2023-02-15T06:54:22.280Z,13.60
2023-02-15T06:54:55.094Z,13.13
2023-02-15T06:55:27.471Z,11.43
2023-02-15T06:56:03.851Z,12.75
2023-02-15T06:56:36.752Z,13.50
2023-02-15T06:57:10.332Z,12.15
2023-02-15T06:57:42.490Z,12.57
2023-02-15T06:58:15.332Z,12.95
2023-02-15T06:58:49.667Z,13.60
2023-02-15T06:59:21.626Z,12.70
2023-02-15T06:59:54.693Z,13.68
2023-02-15T07:00:26.672Z,12.43
2023-02-15T07:00:59.502Z,14.45
2023-02-15T07:01:31.593Z,13.93
2023-02-15T07:02:04.494Z,12.48
2023-02-15T07:02:36.304Z,11.75
2023-02-15T07:03:08.845Z,13.32
2023-02-15T07:03:41.700Z,13.40
2023-02-15T07:04:13.570Z,11.98
2023-02-15T07:04:45.565Z,13.13
2023-02-15T07:05:18.579Z,12.65
2023-02-15T07:05:54.605Z,12.65
2023-02-15T07:06:32.437Z,12.63
2023-02-15T07:07:04.449Z,13.77
2023-02-15T07:07:37.374Z,11.70
2023-02-15T07:08:09.201Z,13.00
2023-02-15T07:08:41.052Z,12.70
2023-02-15T07:09:14.288Z,12.55
2023-02-15T07:09:46.121Z,13.18
2023-02-15T07:10:19.038Z,13.63
2023-02-15T07:10:51.168Z,13.25
2023-02-15T07:11:41.403Z,13.77
2023-02-15T07:12:31.862Z,13.20
2023-02-15T07:13:05.343Z,12.82
2023-02-15T07:13:37.464Z,13.15
2023-02-15T07:14:09.296Z,12.27
2023-02-15T07:14:42.413Z,12.20
2023-02-15T07:15:16.919Z,13.40
2023-02-15T07:15:50.435Z,12.73
2023-02-15T07:16:22.431Z,13.98
2023-02-15T07:16:54.328Z,12.55
2023-02-15T07:17:36.877Z,12.32
2023-02-15T07:18:10.000Z,13.00
2023-02-15T07:18:41.849Z,12.32
2023-02-15T07:19:13.699Z,13.82
2023-02-15T07:19:46.502Z,12.32
2023-02-15T07:20:20.286Z,13.63
2023-02-15T07:20:53.016Z,13.65
2023-02-15T07:21:24.859Z,14.00
2023-02-15T07:21:58.040Z,13.40
2023-02-15T07:22:30.803Z,13.25
2023-02-15T07:23:02.789Z,13.43
2023-02-15T07:23:36.557Z,13.85
2023-02-15T07:24:08.758Z,13.45
2023-02-15T07:24:41.493Z,13.23
2023-02-15T07:25:14.146Z,12.60
2023-02-15T07:25:46.994Z,13.02
2023-02-15T07:26:18.882Z,12.98
2023-02-15T07:26:50.666Z,13.52
2023-02-15T07:27:23.479Z,14.00
2023-02-15T07:27:57.439Z,14.90
2023-02-15T07:28:30.377Z,18.20
2023-02-15T07:29:02.191Z,28.15
2023-02-15T07:29:35.119Z,28.65
2023-02-15T07:30:09.428Z,21.38
2023-02-15T07:30:42.334Z,19.77